RJNF(METAR)
03/23 15:00
RJNF 230600Z 30005KT 9999 FEW030 BKNXXX 11/M01 Q1017 RMK A3004=
戻る
トップページへ戻る
IMOC Co,.Ltd.